• Join FlightAware (Why Join?)
  • Login
  • US Flag 
10:06AM EDT


 

Airport Tracker/Info


-or-


 

Live Flight TrackerFlight Track Log ✈ SKW4764 ✈ 01-Nov-2013 ✈ KMSO - KSLC

Flight Track Log - Related Links

Times and Time Zones

All times are in EDT time to prevent confusion due to time zone crossing. See the SKW4764 flight status page for this flight to view local times or setup timezone preferences in your user account.

Time Position Orientation Groundspeed Altitude Reporting Facility
EDT Latitude Longitude Course Direction KTS MPH feet Rate Location/Type
07:37PM 46.9336 -114.1222 198° South 150 173 4,200  Level Salt Lake Center
07:38PM 46.9692 -114.1850 310° West 199 229 6,800 2,580 Climbing Salt Lake Center
07:39PM 46.9753 -114.2661 276° West 236 272 9,600 2,580 Climbing Salt Lake Center
07:40PM 46.5298 -113.9432 180° South  Level Estimated
07:40PM 46.9028 -114.2903 193° South 267 307 12,100  Level Salt Lake Center
07:41PM 46.4332 -113.9067 180° South  Level Estimated
07:41PM 46.8203 -114.2783 174° South 301 346 13,800  Level Salt Lake Center
07:42PM 46.3381 -113.9508 198° South  Level FlightAware Approximate
07:42PM 46.7214 -114.2425 166° South 342 394 15,400  Level Salt Lake Center
07:43PM 46.6208 -114.2050 166° South 372 428 17,100 1,440 Climbing Salt Lake Center
07:44PM 46.5092 -114.1608 165° South 387 445 18,400 1,380 Climbing Salt Lake Center
07:45PM 46.4011 -114.1206 166° South 402 463 20,000 1,380 Climbing Salt Lake Center
07:46PM 46.2931 -114.0814 166° South 406 467 21,300 1,080 Climbing Salt Lake Center
07:47PM 46.1814 -114.0433 167° South 414 476 22,300 840 Climbing Salt Lake Center
07:48PM 46.0650 -113.9972 165° South 428 493 23,100 780 Climbing Salt Lake Center
07:49PM 45.9461 -113.9572 167° South 438 504 24,000 780 Climbing Salt Lake Center
07:50PM 45.8247 -113.9128 166° South 449 517 24,800 840 Climbing Salt Lake Center
07:51PM 45.6775 -113.8594 166° South 454 522 25,800 900 Climbing Salt Lake Center
07:52PM 45.5669 -113.8222 167° South 456 525 26,700 780 Climbing Salt Lake Center
07:53PM 45.4458 -113.7783 166° South 451 519 27,500 660 Climbing Salt Lake Center
07:54PM 45.2989 -113.7283 167° South 453 521 28,100 600 Climbing Salt Lake Center
07:55PM 45.1786 -113.6861 166° South 462 532 28,800 660 Climbing Salt Lake Center
07:56PM 45.0597 -113.6436 166° South 461 531 29,500 720 Climbing Salt Lake Center
07:58PM 44.9211 -113.5950 166° South 460 529 30,300 540 Climbing Salt Lake Center
07:59PM 44.8003 -113.5550 167° South 466 536 30,700 300 Climbing Salt Lake Center
08:00PM 44.6600 -113.5053 166° South 465 535 31,000 120 Climbing Salt Lake Center
08:01PM 44.5419 -113.4639 166° South 462 532 31,000  Level Salt Lake Center
08:02PM 44.4042 -113.4169 166° South 459 528 31,000  Level Salt Lake Center
08:03PM 44.2858 -113.3769 166° South 458 527 31,000  Level Salt Lake Center
08:04PM 44.1669 -113.3369 166° South 459 528 31,000  Level Salt Lake Center
08:05PM 44.0264 -113.2906 167° South 464 534 31,000  Level Salt Lake Center
08:06PM 43.9069 -113.2511 167° South 459 528 31,000  Level Salt Lake Center
08:07PM 43.7694 -113.2042 166° South 458 527 31,000  Level Salt Lake Center
08:08PM 43.6519 -113.1647 166° South 455 524 31,000  Level Salt Lake Center
08:09PM 43.5158 -113.1203 167° South 452 520 31,000  Level Salt Lake Center
08:10PM 43.3992 -113.0814 166° South 451 519 31,000  Level Salt Lake Center
08:11PM 43.2819 -113.0444 167° South 451 519 31,000  Level Salt Lake Center
08:12PM 43.1414 -112.9967 166° South 461 531 31,000 -420 Level Salt Lake Center
08:13PM 43.0203 -112.9603 168° South 465 535 30,200 -540 Descending Salt Lake Center
08:14PM 42.8708 -112.9114 167° South 487 560 30,000 -120 Descending Salt Lake Center
08:15PM 42.7464 -112.8706 166° South 483 556 30,000  Level Salt Lake Center
08:16PM 42.6028 -112.8236 166° South 476 548 30,000  Level Salt Lake Center
08:17PM 42.4778 -112.7850 167° South 465 535 30,000  Level Salt Lake Center
08:18PM 42.3539 -112.7450 167° South 461 531 30,000 -1,020 Level Salt Lake Center
08:19PM 42.2325 -112.7081 167° South 450 518 28,000 -1,980 Descending Salt Lake Center
08:20PM 42.1136 -112.6714 167° South 441 507 26,000 -1,980 Descending Salt Lake Center
08:21PM 41.9997 -112.6350 167° South 427 491 24,000 -1,980 Descending Salt Lake Center
08:22PM 41.8886 -112.5997 167° South 415 478 22,000 -1,980 Descending Salt Lake Center
08:23PM 41.7742 -112.5644 167° South 420 483 20,000 -2,100 Descending Salt Lake Center
08:24PM 41.6958 -112.5311 162° South 416 479 18,700 -1,980 Descending Salt Lake Center
08:24PM 41.6400 -112.5239 174° South 415 478 18,000 -1,380 Descending Salt Lake Center
08:24PM 41.6436 -112.5169 55° Northeast 411 473 18,000 -1,140 Level Salt Lake Center
08:25PM 41.5347 -112.4892 169° South 394 453 16,900 -1,200 Descending Salt Lake Center
08:25PM 41.5308 -112.4775 114° Southeast 395 455 16,800 -1,260 Descending Salt Lake Center
08:26PM 41.4442 -112.4164 152° Southeast 381 438 15,600 -1,320 Descending Salt Lake Center
08:26PM 41.4403 -112.4081 122° Southeast 382 440 15,500 -1,320 Descending Salt Lake Center
08:27PM 41.3503 -112.3506 154° Southeast 383 441 14,300 -1,320 Descending Salt Lake Center
08:27PM 41.3461 -112.3425 125° Southeast 381 438 14,200 -1,200 Descending Salt Lake Center
08:28PM 41.2628 -112.2875 154° Southeast 363 418 13,100 -1,200 Descending Salt Lake Center
08:28PM 41.2569 -112.2814 142° Southeast 364 419 13,000 -120 Descending Salt Lake Center
08:29PM 41.1764 -112.2244 152° Southeast 357 411 13,000  Level Salt Lake Center
08:29PM 41.1714 -112.2164 130° Southeast 357 411 13,000  Level Salt Lake Center
08:30PM 41.0817 -112.1528 152° Southeast 365 420 13,000 -240 Level Salt Lake Center
08:31PM 40.9753 -112.1256 169° South 353 406 12,600 -1,020 Descending Salt Lake Center
08:32PM 40.8856 -112.1083 172° South 333 383 11,000 -1,620 Descending Salt Lake Center
08:32PM 40.8856 -112.1072 90° East 331 381 11,000 -300 Level Salt Lake Center
08:33PM 40.8114 -112.1025 177° South 258 297 10,700 -300 Descending Salt Lake Center
08:33PM 40.8106 -112.0989 107° East 266 306 10,700 -1,620 Level Salt Lake Center
08:34PM 40.7383 -112.0931 176° South 251 289 9,100 -1,500 Descending Salt Lake Center
08:34PM 40.7422 -112.0908 23° Northeast 250 288 9,200 -300 Climbing Salt Lake Center
08:35PM 40.6722 -112.0844 176° South 234 269 8,800 -420 Descending Salt Lake Center
08:35PM 40.6772 -112.0819 21° North 235 270 8,800 -600 Level Salt Lake Center
08:36PM 40.6331 -112.0383 143° Southeast 223 257 8,200 -540 Descending Salt Lake Center
08:36PM 40.6314 -112.0386 187° South 225 259 8,300 -1,620 Climbing Salt Lake Center
08:37PM 40.6667 -111.9900 46° Northeast 187 215 6,600 -1,860 Descending Salt Lake Center
08:37PM 40.6747 -111.9853 24° Northeast 190 219 6,400 -1,020 Descending Salt Lake Center
08:38PM 40.7094 -111.9897 354° North 158 182 5,600 -900 Descending Salt Lake Center
08:39PM 40.7164 -111.9886 North 152 175 5,500 -900 Descending Salt Lake Center
08:40PM 40.7578 -111.9931 355° North 149 171 4,600 -660 Descending Salt Lake Center
08:41PM 40.7950 -111.9964 356° North 141 162 4,200 -420 Descending Salt Lake Center